VIR99 EGLL-EGPF
Flight info
| Callsign | VIR99 |
|---|---|
| Flight time | N/A |
| Altitude | 32000 |
| Route | ULTIB T420 TNT UN57 POL UN601 RIBEL DCT ASLIB |
| Aircraft | A346/H-SDE2E3FGHIJ3J4J5M1RWXY/LB1D1 |
Departure
| Time | N/A |
|---|---|
| Airport | London Heathrow Airport (EGLL) |
Arrival
| Time | 2026-05-06 19:22 |
|---|---|
| Airport | Glasgow Airport (EGPF) |
| Time | Latitude | Longitude | Altitude | Speed | Heading |
|---|---|---|---|---|---|
| 2026-05-06 18:53 | 54.19351 | -2.45637 | 30566 ft | 421 kts | 330° |
| 2026-05-06 18:54 | 54.21916 | -2.48058 | 30322 ft | 422 kts | 330° |
| 2026-05-06 18:54 | 54.24488 | -2.50484 | 30076 ft | 422 kts | 330° |
| 2026-05-06 18:54 | 54.27061 | -2.52916 | 29781 ft | 422 kts | 330° |
| 2026-05-06 18:54 | 54.29639 | -2.55359 | 29473 ft | 423 kts | 330° |
| 2026-05-06 18:55 | 54.32227 | -2.57816 | 29200 ft | 424 kts | 330° |
| 2026-05-06 18:55 | 54.34812 | -2.60272 | 28926 ft | 426 kts | 330° |
| 2026-05-06 18:55 | 54.37370 | -2.62706 | 28643 ft | 427 kts | 330° |
| 2026-05-06 18:55 | 54.39970 | -2.65183 | 28365 ft | 428 kts | 330° |
| 2026-05-06 18:56 | 54.42606 | -2.67697 | 28081 ft | 429 kts | 330° |
| 2026-05-06 18:56 | 54.45190 | -2.70168 | 27804 ft | 431 kts | 330° |
| 2026-05-06 18:56 | 54.47814 | -2.72678 | 27551 ft | 431 kts | 330° |
| 2026-05-06 18:56 | 54.50436 | -2.75187 | 27284 ft | 432 kts | 329° |
| 2026-05-06 18:57 | 54.53064 | -2.77708 | 27015 ft | 433 kts | 329° |
| 2026-05-06 18:57 | 54.55697 | -2.80237 | 26681 ft | 434 kts | 329° |
| 2026-05-06 18:57 | 54.58344 | -2.82784 | 26232 ft | 435 kts | 329° |
| 2026-05-06 18:57 | 54.60983 | -2.85326 | 25709 ft | 433 kts | 329° |
| 2026-05-06 18:58 | 54.63604 | -2.87853 | 25346 ft | 429 kts | 329° |
| 2026-05-06 18:58 | 54.66202 | -2.90362 | 24933 ft | 426 kts | 329° |
| 2026-05-06 18:58 | 54.68778 | -2.92855 | 24516 ft | 423 kts | 329° |
| 2026-05-06 18:58 | 54.70473 | -2.94496 | 24233 ft | 421 kts | 329° |
| 2026-05-06 18:59 | 54.73023 | -2.96966 | 23821 ft | 417 kts | 329° |
| 2026-05-06 18:59 | 54.75544 | -2.99411 | 23350 ft | 414 kts | 328° |
| 2026-05-06 18:59 | 54.78043 | -3.01843 | 22890 ft | 410 kts | 328° |
| 2026-05-06 18:59 | 54.80517 | -3.04256 | 22448 ft | 405 kts | 328° |
| 2026-05-06 19:00 | 54.82962 | -3.06643 | 22034 ft | 404 kts | 328° |
| 2026-05-06 19:00 | 54.85431 | -3.09049 | 21601 ft | 409 kts | 328° |
| 2026-05-06 19:00 | 54.87913 | -3.11464 | 21176 ft | 408 kts | 328° |
| 2026-05-06 19:00 | 54.90389 | -3.13868 | 20757 ft | 406 kts | 328° |
| 2026-05-06 19:01 | 54.92847 | -3.16252 | 20343 ft | 404 kts | 328° |
| 2026-05-06 19:01 | 54.95296 | -3.18623 | 19942 ft | 402 kts | 328° |
| 2026-05-06 19:01 | 54.97731 | -3.20976 | 19559 ft | 399 kts | 328° |
| 2026-05-06 19:01 | 55.00158 | -3.23311 | 19163 ft | 397 kts | 328° |
| 2026-05-06 19:02 | 55.02579 | -3.25632 | 18772 ft | 395 kts | 328° |
| 2026-05-06 19:02 | 55.04982 | -3.27935 | 18392 ft | 393 kts | 328° |
| 2026-05-06 19:02 | 55.07378 | -3.30230 | 17942 ft | 392 kts | 328° |
| 2026-05-06 19:02 | 55.09761 | -3.32516 | 17391 ft | 390 kts | 328° |
| 2026-05-06 19:03 | 55.12129 | -3.34794 | 16851 ft | 387 kts | 328° |
| 2026-05-06 19:03 | 55.14478 | -3.37062 | 16322 ft | 384 kts | 328° |
| 2026-05-06 19:03 | 55.16808 | -3.39322 | 15839 ft | 381 kts | 328° |
| 2026-05-06 19:03 | 55.19119 | -3.41573 | 15404 ft | 380 kts | 328° |
| 2026-05-06 19:04 | 55.21422 | -3.43823 | 14990 ft | 378 kts | 328° |
| 2026-05-06 19:04 | 55.23713 | -3.46068 | 14597 ft | 377 kts | 328° |
| 2026-05-06 19:04 | 55.25972 | -3.48281 | 14222 ft | 375 kts | 328° |
| 2026-05-06 19:04 | 55.28247 | -3.50515 | 13824 ft | 374 kts | 328° |
| 2026-05-06 19:05 | 55.30507 | -3.52744 | 13399 ft | 372 kts | 328° |
| 2026-05-06 19:05 | 55.32750 | -3.54961 | 12961 ft | 367 kts | 328° |
| 2026-05-06 19:05 | 55.34964 | -3.57150 | 12529 ft | 362 kts | 328° |
| 2026-05-06 19:05 | 55.37146 | -3.59314 | 12099 ft | 357 kts | 328° |
| 2026-05-06 19:06 | 55.39292 | -3.61445 | 11676 ft | 352 kts | 328° |
| 2026-05-06 19:06 | 55.41411 | -3.63554 | 11277 ft | 347 kts | 328° |
| 2026-05-06 19:06 | 55.43501 | -3.65637 | 10867 ft | 343 kts | 328° |
| 2026-05-06 19:06 | 55.45565 | -3.67704 | 10474 ft | 339 kts | 327° |
| 2026-05-06 19:07 | 55.47508 | -3.69993 | 10111 ft | 333 kts | 321° |
| 2026-05-06 19:07 | 55.49284 | -3.72478 | 10026 ft | 317 kts | 318° |
| 2026-05-06 19:07 | 55.50930 | -3.74936 | 10013 ft | 301 kts | 317° |
| 2026-05-06 19:07 | 55.52486 | -3.77278 | 9984 ft | 288 kts | 317° |
| 2026-05-06 19:08 | 55.54004 | -3.79566 | 9643 ft | 285 kts | 317° |
| 2026-05-06 19:08 | 55.55500 | -3.81830 | 9373 ft | 281 kts | 317° |
| 2026-05-06 19:08 | 55.56982 | -3.84081 | 9132 ft | 281 kts | 317° |
| 2026-05-06 19:08 | 55.58459 | -3.86334 | 8877 ft | 279 kts | 317° |
| 2026-05-06 19:09 | 55.59926 | -3.88578 | 8640 ft | 278 kts | 317° |
| 2026-05-06 19:09 | 55.61391 | -3.90826 | 8399 ft | 278 kts | 317° |
| 2026-05-06 19:09 | 55.62846 | -3.93063 | 8063 ft | 276 kts | 317° |
| 2026-05-06 19:09 | 55.64278 | -3.95277 | 7759 ft | 276 kts | 317° |
| 2026-05-06 19:10 | 55.65777 | -3.97400 | 7428 ft | 278 kts | 329° |
| 2026-05-06 19:10 | 55.67622 | -3.98390 | 7143 ft | 279 kts | 353° |
| 2026-05-06 19:10 | 55.69559 | -3.98570 | 6965 ft | 279 kts | 1° |
| 2026-05-06 19:10 | 55.71481 | -3.98100 | 6783 ft | 279 kts | 12° |
| 2026-05-06 19:11 | 55.73352 | -3.97345 | 6608 ft | 273 kts | 13° |
| 2026-05-06 19:11 | 55.75172 | -3.96566 | 6426 ft | 266 kts | 14° |
| 2026-05-06 19:11 | 55.76949 | -3.95802 | 6237 ft | 259 kts | 14° |
| 2026-05-06 19:11 | 55.78681 | -3.95062 | 6041 ft | 253 kts | 14° |
| 2026-05-06 19:12 | 55.80374 | -3.94340 | 5852 ft | 247 kts | 14° |
| 2026-05-06 19:12 | 55.82027 | -3.93628 | 5656 ft | 243 kts | 13° |
| 2026-05-06 19:12 | 55.83667 | -3.92903 | 5467 ft | 242 kts | 7° |
| 2026-05-06 19:12 | 55.85337 | -3.92896 | 5280 ft | 240 kts | 352° |
| 2026-05-06 19:13 | 55.86990 | -3.93285 | 5092 ft | 239 kts | 349° |
| 2026-05-06 19:13 | 55.88636 | -3.93744 | 4919 ft | 239 kts | 349° |
| 2026-05-06 19:13 | 55.90279 | -3.94218 | 4735 ft | 239 kts | 349° |
| 2026-05-06 19:13 | 55.91921 | -3.94698 | 4540 ft | 239 kts | 349° |
| 2026-05-06 19:14 | 55.93562 | -3.95182 | 4363 ft | 238 kts | 349° |
| 2026-05-06 19:14 | 55.95198 | -3.95672 | 4184 ft | 238 kts | 349° |
| 2026-05-06 19:14 | 55.96808 | -3.96157 | 4041 ft | 231 kts | 349° |
| 2026-05-06 19:14 | 55.98313 | -3.96971 | 3881 ft | 223 kts | 324° |
| 2026-05-06 19:15 | 55.99471 | -3.98728 | 3700 ft | 215 kts | 311° |
| 2026-05-06 19:15 | 56.00488 | -4.00669 | 3516 ft | 213 kts | 309° |
| 2026-05-06 19:15 | 56.01475 | -4.02640 | 3333 ft | 212 kts | 309° |
| 2026-05-06 19:15 | 56.02364 | -4.04723 | 3143 ft | 209 kts | 290° |
| 2026-05-06 19:16 | 56.02813 | -4.07127 | 2999 ft | 206 kts | 281° |
| 2026-05-06 19:16 | 56.03138 | -4.09619 | 3010 ft | 201 kts | 279° |
| 2026-05-06 19:16 | 56.03275 | -4.11981 | 3002 ft | 183 kts | 254° |
| 2026-05-06 19:16 | 56.02716 | -4.13989 | 3008 ft | 178 kts | 231° |
| 2026-05-06 19:17 | 56.01941 | -4.15667 | 3002 ft | 177 kts | 227° |
| 2026-05-06 19:17 | 56.01122 | -4.17295 | 2983 ft | 171 kts | 225° |
| 2026-05-06 19:17 | 56.00326 | -4.18817 | 2978 ft | 166 kts | 225° |
| 2026-05-06 19:17 | 55.99529 | -4.20313 | 2973 ft | 166 kts | 224° |
| 2026-05-06 19:18 | 55.98727 | -4.21808 | 2982 ft | 167 kts | 224° |
| 2026-05-06 19:18 | 55.97923 | -4.23301 | 2977 ft | 167 kts | 224° |
| 2026-05-06 19:18 | 55.97118 | -4.24797 | 2770 ft | 166 kts | 225° |
| 2026-05-06 19:18 | 55.96318 | -4.26284 | 2538 ft | 166 kts | 224° |
| 2026-05-06 19:19 | 55.95521 | -4.27769 | 2309 ft | 164 kts | 225° |
| 2026-05-06 19:19 | 55.94758 | -4.29191 | 2071 ft | 155 kts | 225° |
| 2026-05-06 19:19 | 55.94015 | -4.30578 | 1876 ft | 154 kts | 225° |
| 2026-05-06 19:19 | 55.93277 | -4.31955 | 1678 ft | 153 kts | 225° |
| 2026-05-06 19:20 | 55.92540 | -4.33330 | 1476 ft | 153 kts | 225° |
| 2026-05-06 19:20 | 55.91807 | -4.34700 | 1249 ft | 152 kts | 225° |
| 2026-05-06 19:20 | 55.91080 | -4.36071 | 1021 ft | 152 kts | 226° |
| 2026-05-06 19:20 | 55.90371 | -4.37446 | 767 ft | 151 kts | 226° |
| 2026-05-06 19:21 | 55.89635 | -4.38787 | 573 ft | 151 kts | 226° |
| 2026-05-06 19:21 | 55.88906 | -4.40130 | 380 ft | 150 kts | 227° |
| 2026-05-06 19:21 | 55.88183 | -4.41478 | 177 ft | 150 kts | 228° |
| 2026-05-06 19:21 | 55.87476 | -4.42804 | 40 ft | 136 kts | 226° |
| 2026-05-06 19:22 | 55.87017 | -4.43669 | 40 ft | 60 kts | 225° |
| 2026-05-06 19:22 | 55.86809 | -4.44050 | 40 ft | 41 kts | 226° |
| 2026-05-06 19:22 | 55.86682 | -4.44276 | 40 ft | 13 kts | 202° |
| 2026-05-06 19:22 | 55.86633 | -4.44185 | 40 ft | 12 kts | 90° |
| 2026-05-06 19:23 | 55.86623 | -4.44024 | 40 ft | 15 kts | 84° |
| 2026-05-06 19:23 | 55.86632 | -4.42736 | 40 ft | 0 kts | 74° |
| 2026-05-06 19:23 | 55.86619 | -4.42816 | 38 ft | 0 kts | 74° |